createdAt,value
2023-03-17T00:01:16.451Z,60.39
2023-03-17T00:03:45.563Z,60.87
2023-03-17T00:06:16.695Z,61.08
2023-03-17T00:08:45.378Z,60.60
2023-03-17T00:11:13.901Z,60.92
2023-03-17T00:13:41.630Z,61.06
2023-03-17T00:16:16.315Z,60.91
2023-03-17T00:18:43.306Z,60.18
2023-03-17T00:21:13.432Z,61.62
2023-03-17T00:23:39.995Z,60.86
2023-03-17T00:26:06.855Z,61.05
2023-03-17T00:28:33.636Z,61.24
2023-03-17T00:31:01.621Z,60.73
2023-03-17T00:33:33.113Z,61.54
2023-03-17T00:35:59.690Z,61.73
2023-03-17T00:38:26.123Z,61.27
2023-03-17T00:40:52.509Z,62.45
2023-03-17T00:43:21.748Z,61.58
2023-03-17T00:45:48.215Z,61.36
2023-03-17T00:48:21.128Z,61.87
2023-03-17T00:50:49.700Z,61.96
2023-03-17T00:53:19.082Z,62.12
2023-03-17T00:55:45.755Z,62.22
2023-03-17T00:58:26.154Z,61.84
2023-03-17T01:00:53.580Z,62.10
2023-03-17T01:03:20.497Z,62.28
2023-03-17T01:05:49.448Z,61.92
2023-03-17T01:08:16.800Z,61.78
2023-03-17T01:10:43.468Z,61.99
2023-03-17T01:13:12.774Z,62.01
2023-03-17T01:15:46.667Z,61.62
2023-03-17T01:18:15.995Z,62.38
2023-03-17T01:20:43.260Z,62.30
2023-03-17T01:23:10.803Z,61.78
2023-03-17T01:25:38.486Z,62.06
2023-03-17T01:28:05.926Z,62.48
2023-03-17T01:30:35.313Z,62.42
2023-03-17T01:33:02.342Z,62.39
2023-03-17T01:35:29.402Z,62.29
2023-03-17T01:37:57.999Z,62.40
2023-03-17T01:40:28.159Z,62.14
2023-03-17T01:43:16.119Z,62.49
2023-03-17T01:46:13.986Z,62.44
2023-03-17T01:48:58.559Z,62.66
2023-03-17T01:51:32.390Z,62.47
2023-03-17T01:54:01.385Z,62.46
2023-03-17T01:56:28.924Z,62.24
2023-03-17T01:58:59.281Z,62.59
2023-03-17T02:01:32.902Z,62.74
2023-03-17T02:04:00.857Z,62.80
2023-03-17T02:06:27.475Z,62.86
2023-03-17T02:08:53.978Z,62.72
2023-03-17T02:11:21.112Z,62.70
2023-03-17T02:13:47.755Z,62.70
2023-03-17T02:16:17.812Z,62.89
2023-03-17T02:18:47.201Z,63.00
2023-03-17T02:21:39.687Z,63.19
2023-03-17T02:24:18.593Z,62.88
2023-03-17T02:26:47.138Z,63.20
2023-03-17T02:29:14.009Z,62.69
2023-03-17T02:31:41.025Z,63.55
2023-03-17T02:34:07.443Z,63.58
2023-03-17T02:36:33.927Z,63.79
2023-03-17T02:39:00.983Z,63.12
2023-03-17T02:41:30.004Z,63.34
2023-03-17T02:43:56.859Z,63.33
2023-03-17T02:46:23.281Z,63.50
2023-03-17T02:48:50.803Z,63.32
2023-03-17T02:51:17.380Z,63.95
2023-03-17T02:53:43.786Z,63.94
2023-03-17T02:56:10.790Z,63.80
2023-03-17T02:58:37.241Z,63.69
2023-03-17T03:01:04.177Z,63.48
2023-03-17T03:03:31.070Z,63.54
2023-03-17T03:05:58.316Z,63.70
2023-03-17T03:08:25.533Z,63.83
2023-03-17T03:10:52.289Z,63.60
2023-03-17T03:13:18.686Z,63.83
2023-03-17T03:15:45.119Z,63.48
2023-03-17T03:18:12.405Z,64.01
2023-03-17T03:20:41.497Z,63.57
2023-03-17T03:23:07.984Z,64.28
2023-03-17T03:25:37.559Z,63.66
2023-03-17T03:28:05.401Z,64.71
2023-03-17T03:30:33.265Z,64.78
2023-03-17T03:32:59.741Z,64.35
2023-03-17T03:35:26.154Z,64.22
2023-03-17T03:37:52.576Z,64.34
2023-03-17T03:40:18.997Z,63.88
2023-03-17T03:42:45.449Z,63.75
2023-03-17T03:45:11.854Z,63.70
2023-03-17T03:47:38.286Z,64.08
2023-03-17T03:50:05.129Z,64.38
2023-03-17T03:52:31.578Z,64.36
2023-03-17T03:54:57.994Z,64.15
2023-03-17T03:57:24.401Z,63.79
2023-03-17T03:59:50.987Z,64.32
2023-03-17T04:02:18.328Z,64.47
2023-03-17T04:04:44.925Z,64.25
2023-03-17T04:07:11.389Z,64.49
2023-03-17T04:09:38.959Z,64.70
2023-03-17T04:12:06.017Z,64.69
2023-03-17T04:14:33.248Z,64.54
2023-03-17T04:16:59.654Z,64.58
2023-03-17T04:19:26.330Z,64.95
2023-03-17T04:21:54.680Z,64.19
2023-03-17T04:24:21.301Z,63.93
2023-03-17T04:26:47.703Z,64.60
2023-03-17T04:29:15.880Z,64.22
2023-03-17T04:31:42.525Z,64.11
2023-03-17T04:34:17.257Z,63.64
2023-03-17T04:36:45.096Z,64.26
2023-03-17T04:39:11.887Z,64.17
2023-03-17T04:41:38.359Z,64.18
2023-03-17T04:44:05.473Z,64.05
2023-03-17T04:46:32.645Z,63.72
2023-03-17T04:48:59.113Z,64.19
2023-03-17T04:51:25.644Z,63.57
2023-03-17T04:53:52.437Z,63.70
2023-03-17T04:56:19.008Z,63.56
2023-03-17T04:58:45.782Z,63.52
2023-03-17T05:01:12.273Z,63.93
2023-03-17T05:03:38.889Z,63.52
2023-03-17T05:06:05.992Z,63.58
2023-03-17T05:08:32.750Z,63.65
2023-03-17T05:10:59.200Z,63.57
2023-03-17T05:13:27.157Z,63.26
2023-03-17T05:15:55.512Z,63.43
2023-03-17T05:18:24.098Z,63.47
2023-03-17T05:20:51.031Z,63.60
2023-03-17T05:23:17.723Z,63.96
2023-03-17T05:25:44.204Z,64.08
2023-03-17T05:28:10.642Z,63.82
2023-03-17T05:30:37.110Z,63.94
2023-03-17T05:33:04.287Z,63.51
2023-03-17T05:35:30.846Z,63.58
2023-03-17T05:37:57.317Z,63.55
2023-03-17T05:40:24.032Z,63.39
2023-03-17T05:42:51.418Z,63.38
2023-03-17T05:45:18.674Z,63.13
2023-03-17T05:47:45.737Z,63.13
2023-03-17T05:50:12.897Z,63.41
2023-03-17T05:52:40.599Z,63.19
2023-03-17T05:55:07.806Z,63.03
2023-03-17T05:57:34.756Z,62.86
2023-03-17T06:00:01.165Z,62.64
2023-03-17T06:02:27.690Z,62.53
2023-03-17T06:04:54.141Z,62.40
2023-03-17T06:07:20.580Z,62.15
2023-03-17T06:09:47.527Z,61.85
2023-03-17T06:12:14.003Z,62.14
2023-03-17T06:14:43.289Z,61.76
2023-03-17T06:17:09.817Z,61.68
2023-03-17T06:19:36.504Z,61.36
2023-03-17T06:22:07.122Z,61.50
2023-03-17T06:24:33.778Z,61.56
2023-03-17T06:27:01.230Z,61.12
2023-03-17T06:29:29.088Z,61.47
2023-03-17T06:31:56.990Z,61.37
2023-03-17T06:34:26.265Z,61.30
2023-03-17T06:36:52.688Z,61.12
2023-03-17T06:39:19.170Z,60.94
2023-03-17T06:41:45.582Z,60.85
2023-03-17T06:44:12.095Z,61.01
2023-03-17T07:13:06.835Z,59.03
2023-03-17T07:15:35.897Z,58.94
2023-03-17T07:18:02.505Z,59.32
2023-03-17T07:20:28.900Z,58.68
2023-03-17T07:22:55.304Z,58.30
2023-03-17T07:25:22.390Z,57.62
2023-03-17T07:27:48.776Z,56.79
2023-03-17T07:30:18.965Z,57.07
2023-03-17T07:32:46.711Z,55.81
2023-03-17T07:35:15.465Z,56.31
2023-03-17T07:38:02.877Z,56.50
2023-03-17T07:40:29.793Z,56.19
2023-03-17T07:42:56.278Z,56.20
2023-03-17T07:45:22.746Z,56.53
2023-03-17T07:47:49.188Z,56.43
2023-03-17T07:50:15.665Z,55.64
2023-03-17T07:52:42.169Z,55.44
2023-03-17T07:55:10.579Z,54.80
2023-03-17T07:57:37.380Z,54.13
2023-03-17T08:00:05.052Z,54.38
2023-03-17T08:02:37.948Z,54.10
2023-03-17T08:05:04.815Z,53.48
2023-03-17T08:07:31.632Z,53.01
2023-03-17T08:09:58.218Z,52.52
2023-03-17T08:12:25.576Z,52.57
2023-03-17T08:14:52.806Z,52.63
2023-03-17T08:17:19.243Z,52.05
2023-03-17T08:19:45.699Z,51.67
2023-03-17T08:22:12.439Z,50.83
2023-03-17T08:24:41.076Z,50.83
2023-03-17T08:27:08.674Z,50.42
2023-03-17T08:29:35.926Z,50.53
2023-03-17T08:32:03.233Z,50.91
2023-03-17T08:34:29.914Z,50.51
2023-03-17T08:36:56.576Z,50.87
2023-03-17T08:39:23.223Z,50.80
2023-03-17T08:41:50.954Z,50.69
2023-03-17T08:44:17.522Z,50.60
2023-03-17T08:46:43.980Z,50.47
2023-03-17T08:49:11.284Z,50.47
2023-03-17T08:51:38.480Z,49.92
2023-03-17T08:54:06.829Z,49.80
2023-03-17T08:56:33.696Z,50.08
2023-03-17T08:59:00.192Z,49.71
2023-03-17T09:01:27.308Z,49.52
2023-03-17T09:03:55.062Z,49.04
2023-03-17T09:06:22.650Z,49.18
2023-03-17T09:08:55.142Z,48.76
2023-03-17T09:11:25.945Z,48.35
2023-03-17T09:13:52.722Z,48.03
2023-03-17T09:16:23.050Z,47.96
2023-03-17T09:18:50.123Z,47.47
2023-03-17T09:21:17.261Z,47.66
2023-03-17T09:23:43.748Z,47.69
2023-03-17T09:26:10.984Z,47.94
2023-03-17T09:28:37.375Z,47.70
2023-03-17T09:31:07.642Z,47.21
2023-03-17T09:33:34.113Z,47.98
2023-03-17T09:36:00.561Z,47.32
2023-03-17T09:38:27.541Z,47.15
2023-03-17T09:41:00.409Z,46.81
2023-03-17T09:43:52.319Z,46.70
2023-03-17T09:46:42.918Z,46.75
2023-03-17T09:49:14.557Z,47.14
2023-03-17T09:51:43.830Z,46.25
2023-03-17T09:54:32.389Z,46.68
2023-03-17T09:57:22.060Z,46.26
2023-03-17T09:59:55.123Z,46.09
2023-03-17T10:02:29.725Z,46.49
2023-03-17T10:04:57.477Z,46.61
2023-03-17T10:07:39.095Z,46.14
2023-03-17T10:10:19.664Z,45.82
2023-03-17T10:12:57.899Z,46.03
2023-03-17T10:15:51.339Z,45.10
2023-03-17T10:18:22.946Z,46.22
2023-03-17T10:20:54.572Z,45.60
2023-03-17T10:23:26.566Z,45.53
2023-03-17T10:25:55.202Z,45.50
2023-03-17T10:28:28.258Z,45.60
2023-03-17T10:30:57.475Z,44.49
2023-03-17T10:33:23.966Z,44.10
2023-03-17T10:35:50.496Z,43.95
2023-03-17T10:38:21.546Z,43.99
2023-03-17T10:40:56.354Z,44.49
2023-03-17T10:43:27.634Z,44.10
2023-03-17T10:46:03.021Z,43.82
2023-03-17T10:48:31.408Z,43.70
2023-03-17T10:50:58.913Z,43.54
2023-03-17T10:53:30.377Z,43.81
2023-03-17T10:56:00.981Z,43.30
2023-03-17T10:58:46.711Z,43.46
2023-03-17T11:01:27.793Z,43.59
2023-03-17T11:03:54.277Z,43.43
2023-03-17T11:06:31.773Z,42.99
2023-03-17T11:09:06.935Z,42.96
2023-03-17T11:11:41.854Z,42.77
2023-03-17T11:14:15.349Z,42.72
2023-03-17T11:16:56.830Z,42.41
2023-03-17T11:19:42.028Z,42.48
2023-03-17T11:22:20.702Z,42.05
2023-03-17T11:25:04.312Z,42.30
2023-03-17T11:27:34.873Z,41.83
2023-03-17T11:30:30.453Z,42.02
2023-03-17T11:32:57.145Z,42.24
2023-03-17T11:35:34.204Z,42.46
2023-03-17T11:38:22.054Z,41.84
2023-03-17T11:41:13.725Z,41.60
2023-03-17T11:44:18.427Z,42.16
2023-03-17T11:46:56.670Z,42.59
2023-03-17T11:49:37.490Z,42.24
2023-03-17T11:52:28.484Z,42.26
2023-03-17T11:55:21.655Z,42.13
2023-03-17T11:57:57.376Z,42.37
2023-03-17T12:00:36.716Z,42.62
2023-03-17T12:03:32.053Z,41.96
2023-03-17T12:06:05.443Z,42.49
2023-03-17T12:08:46.689Z,42.61
2023-03-17T12:11:19.443Z,42.26
2023-03-17T12:13:56.707Z,42.35
2023-03-17T12:16:33.042Z,42.39
2023-03-17T12:19:24.487Z,42.44
2023-03-17T12:21:57.928Z,42.32
2023-03-17T12:24:35.394Z,41.59
2023-03-17T12:27:27.228Z,42.03
2023-03-17T12:30:21.439Z,42.26
2023-03-17T12:33:24.683Z,42.27
2023-03-17T12:35:52.040Z,42.40
2023-03-17T12:38:29.996Z,42.25
2023-03-17T12:41:23.659Z,42.51
2023-03-17T12:44:03.010Z,42.14
2023-03-17T12:46:48.061Z,42.59
2023-03-17T12:49:49.993Z,42.73
2023-03-17T12:52:33.716Z,42.50
2023-03-17T12:55:03.159Z,42.91
2023-03-17T12:57:42.692Z,43.14
2023-03-17T13:00:29.925Z,42.89
2023-03-17T13:03:32.612Z,42.85
2023-03-17T13:06:05.068Z,43.06
2023-03-17T13:08:35.601Z,43.21
2023-03-17T13:11:29.370Z,42.84
2023-03-17T13:14:24.606Z,43.13
2023-03-17T13:16:51.008Z,43.45
2023-03-17T13:19:20.787Z,43.13
2023-03-17T13:22:00.528Z,43.25
2023-03-17T13:24:47.956Z,43.23
2023-03-17T13:27:32.457Z,43.08
2023-03-17T13:30:01.111Z,43.06
2023-03-17T13:32:27.514Z,43.08
2023-03-17T13:35:15.812Z,42.90
2023-03-17T13:38:00.229Z,43.12
2023-03-17T13:40:41.556Z,43.11
2023-03-17T13:43:45.348Z,42.65
2023-03-17T13:46:39.006Z,43.06
2023-03-17T13:49:27.499Z,42.87
2023-03-17T13:52:07.506Z,42.56
2023-03-17T13:54:40.685Z,42.68
2023-03-17T13:57:38.917Z,42.10
2023-03-17T14:00:26.984Z,42.31
2023-03-17T14:03:02.001Z,42.04
2023-03-17T14:05:31.516Z,42.86
2023-03-17T14:08:06.326Z,41.79
2023-03-17T14:10:33.933Z,41.49
2023-03-17T14:13:24.210Z,41.06
2023-03-17T14:16:12.193Z,41.25
2023-03-17T14:18:42.795Z,41.48
2023-03-17T14:21:24.183Z,41.43
2023-03-17T14:24:02.218Z,40.85
2023-03-17T14:26:32.807Z,41.62
2023-03-17T14:29:01.068Z,41.70
2023-03-17T14:31:29.119Z,41.57
2023-03-17T14:33:58.590Z,41.82
2023-03-17T14:36:27.524Z,41.61
2023-03-17T14:38:56.695Z,41.23
2023-03-17T14:41:28.318Z,41.09
2023-03-17T14:43:59.415Z,41.13
2023-03-17T14:46:27.926Z,41.26
2023-03-17T14:49:16.768Z,41.20
2023-03-17T14:51:43.786Z,41.53
2023-03-17T14:54:16.641Z,41.26
2023-03-17T14:56:47.900Z,41.41
2023-03-17T14:59:36.399Z,41.12
2023-03-17T15:02:19.100Z,41.26
2023-03-17T15:04:54.238Z,41.62
2023-03-17T15:07:40.796Z,41.68
2023-03-17T15:10:16.499Z,41.65
2023-03-17T15:12:46.162Z,41.73
2023-03-17T15:15:26.650Z,41.59
2023-03-17T15:17:59.113Z,41.65
2023-03-17T15:20:25.748Z,41.61
2023-03-17T15:23:05.540Z,41.71
2023-03-17T15:25:42.084Z,41.87
2023-03-17T15:28:17.015Z,42.28
2023-03-17T15:30:48.232Z,42.03
2023-03-17T15:33:21.140Z,41.93
2023-03-17T15:35:49.369Z,42.07
2023-03-17T15:38:16.714Z,42.24
2023-03-17T15:40:43.239Z,42.38
2023-03-17T15:43:15.546Z,42.64
2023-03-17T15:45:44.776Z,42.58
2023-03-17T15:48:26.331Z,42.52
2023-03-17T15:50:55.402Z,42.65
2023-03-17T15:53:22.182Z,42.67
2023-03-17T15:55:48.780Z,42.71
2023-03-17T15:58:15.631Z,42.66
2023-03-17T16:00:42.729Z,42.37
2023-03-17T16:03:21.073Z,42.86
2023-03-17T16:05:47.839Z,42.41
2023-03-17T16:08:15.585Z,42.94
2023-03-17T16:10:42.026Z,43.03
2023-03-17T16:13:08.455Z,43.01
2023-03-17T16:15:39.503Z,43.10
2023-03-17T16:18:08.221Z,43.18
2023-03-17T16:20:38.667Z,43.23
2023-03-17T16:23:14.046Z,43.47
2023-03-17T16:25:40.768Z,43.45
2023-03-17T16:28:21.622Z,43.37
2023-03-17T16:30:49.505Z,43.31
2023-03-17T16:33:19.212Z,43.37
2023-03-17T16:35:48.410Z,43.68
2023-03-17T16:38:18.082Z,44.01
2023-03-17T16:40:50.560Z,43.95
2023-03-17T16:43:25.910Z,44.01
2023-03-17T16:45:55.223Z,44.05
2023-03-17T16:48:21.654Z,44.16
2023-03-17T16:50:48.334Z,44.39
2023-03-17T16:53:14.794Z,44.49
2023-03-17T16:55:41.870Z,44.48
2023-03-17T16:58:23.823Z,44.73
2023-03-17T17:00:53.384Z,44.59
2023-03-17T17:03:20.156Z,44.76
2023-03-17T17:05:47.344Z,44.57
2023-03-17T17:08:13.738Z,44.53
2023-03-17T17:10:40.799Z,44.91
2023-03-17T17:13:09.298Z,44.84
2023-03-17T17:15:36.945Z,45.19
2023-03-17T17:18:07.728Z,45.22
2023-03-17T17:20:37.645Z,45.12
2023-03-17T17:23:04.201Z,45.27
2023-03-17T17:25:31.161Z,45.24
2023-03-17T17:27:58.284Z,45.62
2023-03-17T17:30:28.095Z,45.46
2023-03-17T17:32:57.129Z,45.82
2023-03-17T17:35:26.138Z,45.62
2023-03-17T17:37:53.302Z,45.74
2023-03-17T17:40:24.342Z,45.74
2023-03-17T17:42:51.333Z,46.09
2023-03-17T17:45:18.106Z,46.17
2023-03-17T17:47:44.701Z,46.30
2023-03-17T17:50:17.155Z,46.27
2023-03-17T17:52:43.579Z,46.25
2023-03-17T17:55:09.992Z,46.11
2023-03-17T17:57:36.416Z,46.36
2023-03-17T18:00:06.290Z,46.05
2023-03-17T18:02:35.283Z,45.86
2023-03-17T18:05:01.985Z,46.34
2023-03-17T18:07:28.382Z,45.83
2023-03-17T18:09:54.790Z,46.16
2023-03-17T18:12:21.239Z,45.87
2023-03-17T18:14:47.693Z,46.16
2023-03-17T18:17:16.595Z,46.09
2023-03-17T18:19:42.988Z,46.04
2023-03-17T18:22:09.396Z,46.24
2023-03-17T18:24:36.094Z,45.84
2023-03-17T18:27:03.799Z,46.26
2023-03-17T18:29:30.343Z,46.27
2023-03-17T18:31:56.795Z,46.28
2023-03-17T18:34:27.169Z,47.00
2023-03-17T18:36:57.477Z,47.12
2023-03-17T18:39:23.878Z,47.17
2023-03-17T18:41:50.749Z,47.54
2023-03-17T18:44:18.789Z,47.13
2023-03-17T18:46:45.168Z,47.20
2023-03-17T18:49:11.585Z,47.70
2023-03-17T18:51:37.995Z,47.30
2023-03-17T18:54:05.632Z,47.14
2023-03-17T18:56:32.075Z,47.25
2023-03-17T18:58:59.528Z,47.74
2023-03-17T19:01:26.369Z,47.91
2023-03-17T19:03:53.016Z,47.75
2023-03-17T19:06:21.718Z,47.66
2023-03-17T19:08:48.586Z,48.23
2023-03-17T19:11:18.239Z,48.16
2023-03-17T19:13:45.447Z,47.92
2023-03-17T19:16:12.902Z,48.16
2023-03-17T19:18:41.868Z,48.54
2023-03-17T19:21:09.608Z,48.79
2023-03-17T19:23:38.064Z,48.58
2023-03-17T19:26:05.918Z,49.14
2023-03-17T19:28:33.215Z,48.54
2023-03-17T19:31:00.571Z,49.06
2023-03-17T19:33:28.798Z,49.15
2023-03-17T19:35:57.200Z,48.89
2023-03-17T19:38:24.230Z,49.09
2023-03-17T19:40:50.778Z,49.52
2023-03-17T19:43:32.576Z,49.99
2023-03-17T19:46:03.635Z,49.98
2023-03-17T19:48:30.080Z,49.99
2023-03-17T19:50:56.524Z,49.58
2023-03-17T19:53:22.963Z,49.61
2023-03-17T19:55:49.357Z,50.13
2023-03-17T19:58:16.254Z,50.49
2023-03-17T20:00:42.974Z,50.21
2023-03-17T20:03:09.516Z,50.63
2023-03-17T20:05:36.232Z,50.89
2023-03-17T20:08:02.642Z,49.97
2023-03-17T20:10:29.214Z,50.59
2023-03-17T20:12:55.817Z,50.36
2023-03-17T20:15:22.196Z,50.84
2023-03-17T20:17:48.588Z,51.06
2023-03-17T20:20:15.339Z,51.06
2023-03-17T20:22:43.604Z,51.09
2023-03-17T20:25:10.561Z,50.84
2023-03-17T20:27:37.043Z,50.93
2023-03-17T20:30:05.162Z,51.16
2023-03-17T20:32:32.524Z,51.81
2023-03-17T20:34:58.942Z,51.55
2023-03-17T20:37:25.357Z,51.25
2023-03-17T20:39:54.113Z,51.20
2023-03-17T20:42:20.759Z,51.12
2023-03-17T20:44:52.670Z,51.38
2023-03-17T20:47:22.255Z,51.66
2023-03-17T20:49:48.750Z,51.67
2023-03-17T20:52:15.210Z,51.21
2023-03-17T20:54:42.041Z,50.92
2023-03-17T20:57:12.009Z,51.49
2023-03-17T20:59:38.944Z,51.38
2023-03-17T21:02:07.679Z,51.87
2023-03-17T21:04:34.059Z,52.13
2023-03-17T21:07:00.548Z,51.75
2023-03-17T21:09:27.012Z,51.73
2023-03-17T21:11:53.415Z,51.88
2023-03-17T21:14:19.826Z,51.87
2023-03-17T21:16:47.194Z,52.13
2023-03-17T21:19:15.142Z,52.28
2023-03-17T21:21:41.594Z,52.37
2023-03-17T21:24:24.385Z,52.24
2023-03-17T21:26:50.889Z,52.51
2023-03-17T21:29:17.481Z,52.08
2023-03-17T21:31:44.010Z,53.22
2023-03-17T21:34:10.397Z,52.95
2023-03-17T21:36:36.889Z,53.24
2023-03-17T21:39:05.876Z,53.13
2023-03-17T21:41:37.798Z,53.13
2023-03-17T21:44:06.108Z,52.89
2023-03-17T21:46:33.470Z,53.75
2023-03-17T21:49:00.300Z,53.76
2023-03-17T21:51:27.263Z,53.77
2023-03-17T21:53:53.935Z,53.75
2023-03-17T21:56:20.897Z,54.38
2023-03-17T21:58:48.879Z,54.03
2023-03-17T22:01:17.291Z,53.73
2023-03-17T22:03:44.482Z,54.24
2023-03-17T22:06:13.093Z,54.22
2023-03-17T22:08:39.630Z,53.90
2023-03-17T22:11:11.022Z,54.35
2023-03-17T22:13:37.799Z,54.20
2023-03-17T22:16:05.064Z,54.46
2023-03-17T22:18:32.380Z,54.75
2023-03-17T22:20:59.528Z,54.69
2023-03-17T22:23:26.505Z,54.67
2023-03-17T22:25:52.968Z,54.41
2023-03-17T22:28:19.446Z,54.92
2023-03-17T22:30:46.031Z,54.90
2023-03-17T22:33:13.712Z,55.41
2023-03-17T22:35:40.214Z,55.05
2023-03-17T22:38:08.547Z,55.74
2023-03-17T22:40:35.598Z,55.85
2023-03-17T22:43:02.138Z,55.38
2023-03-17T22:45:28.538Z,56.14
2023-03-17T22:47:55.977Z,55.26
2023-03-17T22:50:23.157Z,55.34
2023-03-17T22:52:50.280Z,56.40
2023-03-17T22:55:16.936Z,56.44
2023-03-17T22:57:43.349Z,56.28
2023-03-17T23:00:16.380Z,56.02
2023-03-17T23:02:46.379Z,56.66
2023-03-17T23:05:13.459Z,56.69
2023-03-17T23:07:50.472Z,56.77
2023-03-17T23:10:22.824Z,56.33
2023-03-17T23:12:49.693Z,57.15
2023-03-17T23:15:18.741Z,57.26
2023-03-17T23:17:45.161Z,56.96
2023-03-17T23:20:12.090Z,56.74
2023-03-17T23:22:38.554Z,57.13
2023-03-17T23:25:06.143Z,57.30
2023-03-17T23:27:32.531Z,57.05
2023-03-17T23:29:59.242Z,56.79
2023-03-17T23:32:25.642Z,56.89
2023-03-17T23:34:52.007Z,56.74
2023-03-17T23:37:18.432Z,56.75
2023-03-17T23:39:44.870Z,57.15
2023-03-17T23:42:11.337Z,57.05
2023-03-17T23:44:37.750Z,57.02
2023-03-17T23:47:04.304Z,57.23
2023-03-17T23:49:31.064Z,56.91
2023-03-17T23:51:58.679Z,56.73
2023-03-17T23:54:25.150Z,56.90
2023-03-17T23:56:52.583Z,56.96
2023-03-17T23:59:19.213Z,57.36
